Time;durP1;ratioP1;P1;durP2;ratioP2;P2;SDS_P1;SDS_P2;PMS_P1;PMS_P2;Temp;Humidity;BMP_temperature;BMP_pressure;BME280_temperature;BME280_humidity;BME280_pressure;Samples;Min_cycle;Max_cycle;Signal;HPM_P1;HPM_P2
2022/06/07 00:01:37;;;;;;;23.40;15.30;;;13.40;99.90;;;;;;5079342;28;20203;-83
2022/06/07 00:04:04;;;;;;;24.33;15.63;;;13.40;99.90;;;;;;5077221;28;20205;-83
2022/06/07 00:06:32;;;;;;;23.30;16.40;;;13.40;99.90;;;;;;5069576;28;20258;-84
2022/06/07 00:08:58;;;;;;;23.93;16.03;;;13.40;99.90;;;;;;5075147;28;20200;-84
2022/06/07 00:11:25;;;;;;;23.03;15.73;;;13.40;99.90;;;;;;5076591;28;20216;-83
2022/06/07 00:13:52;;;;;;;21.53;16.00;;;13.40;99.90;;;;;;5079969;28;20207;-85
2022/06/07 00:16:19;;;;;;;23.53;16.97;;;13.40;99.90;;;;;;5078931;28;20280;-82
2022/06/07 00:18:46;;;;;;;24.17;16.37;;;13.40;99.90;;;;;;5075942;28;20234;-83
2022/06/07 00:21:13;;;;;;;24.37;16.73;;;13.40;99.90;;;;;;5074403;28;20209;-83
2022/06/07 00:23:40;;;;;;;23.67;16.57;;;13.50;99.90;;;;;;5078177;28;20211;-83
2022/06/07 00:26:08;;;;;;;25.47;16.00;;;13.50;99.90;;;;;;5077520;28;20657;-83
2022/06/07 00:28:35;;;;;;;25.60;16.90;;;13.50;99.90;;;;;;5073391;28;20215;-82
2022/06/07 00:31:03;;;;;;;25.83;17.50;;;13.50;99.90;;;;;;5077521;28;20196;-83
2022/06/07 00:33:29;;;;;;;26.33;17.17;;;13.50;99.90;;;;;;5076065;28;20285;-82
2022/06/07 00:35:56;;;;;;;24.13;17.60;;;13.50;99.90;;;;;;5073695;28;20252;-84
2022/06/07 00:38:23;;;;;;;24.50;17.63;;;13.50;99.90;;;;;;5073782;28;20673;-84
2022/06/07 00:40:50;;;;;;;26.80;18.10;;;13.60;99.90;;;;;;5076889;28;20679;-84
2022/06/07 00:43:22;;;;;;;25.97;17.73;;;13.50;99.90;;;;;;5076280;28;20697;-82
2022/06/07 00:45:49;;;;;;;27.53;19.27;;;13.60;99.90;;;;;;5076261;28;20297;-83
2022/06/07 00:48:16;;;;;;;27.27;19.17;;;13.60;99.90;;;;;;5077183;28;20214;-81
2022/06/07 00:50:58;;;;;;;29.10;19.33;;;13.60;99.90;;;;;;5074772;28;20204;-84
2022/06/07 00:53:29;;;;;;;25.40;17.60;;;13.60;99.90;;;;;;5074137;28;20235;-82
2022/06/07 00:55:57;;;;;;;28.07;18.00;;;13.60;99.90;;;;;;5085092;28;21444;-81
2022/06/07 00:58:28;;;;;;;28.77;18.40;;;13.60;99.90;;;;;;5073575;28;20247;-83
2022/06/07 01:00:56;;;;;;;27.50;17.57;;;13.60;99.90;;;;;;5077742;28;20208;-84
2022/06/07 01:03:24;;;;;;;29.00;19.63;;;13.70;99.90;;;;;;5074126;28;20257;-85
2022/06/07 01:05:53;;;;;;;28.50;18.87;;;13.70;99.90;;;;;;5076366;28;20210;-83
2022/06/07 01:11:06;;;;;;;31.43;19.53;;;13.70;99.90;;;;;;5081257;28;20265;-80
2022/06/07 01:13:35;;;;;;;29.27;20.13;;;13.70;99.90;;;;;;5076739;28;20216;-85
2022/06/07 01:16:04;;;;;;;28.43;18.27;;;13.70;99.90;;;;;;5073304;28;20300;-84
2022/06/07 01:18:32;;;;;;;25.50;18.87;;;13.70;99.90;;;;;;5072504;28;20235;-82
2022/06/07 01:21:19;;;;;;;27.03;18.67;;;13.70;99.90;;;;;;5075450;28;20200;-83
2022/06/07 01:23:48;;;;;;;27.23;19.27;;;13.70;99.90;;;;;;5073933;28;20262;-82
2022/06/07 01:26:15;;;;;;;31.03;19.13;;;13.70;99.90;;;;;;5079881;28;20274;-81
2022/06/07 01:28:42;;;;;;;30.87;19.77;;;13.70;99.90;;;;;;5075489;28;20200;-84
2022/06/07 01:31:09;;;;;;;28.10;19.10;;;13.80;99.90;;;;;;5083379;28;20596;-84
2022/06/07 01:33:36;;;;;;;31.20;19.57;;;13.80;99.90;;;;;;5075657;28;20227;-82
2022/06/07 01:36:10;;;;;;;29.73;19.73;;;13.80;99.90;;;;;;5074930;28;20272;-83
2022/06/07 01:38:39;;;;;;;31.50;19.53;;;13.80;99.90;;;;;;5076962;28;20205;-81
2022/06/07 01:43:54;;;;;;;30.60;19.77;;;13.80;99.90;;;;;;5075055;28;20204;-84
2022/06/07 01:46:21;;;;;;;26.87;18.13;;;13.80;99.90;;;;;;5076534;28;20265;-84
2022/06/07 01:48:48;;;;;;;33.83;20.10;;;13.90;99.90;;;;;;5081062;28;20216;-83
2022/06/07 01:51:17;;;;;;;33.90;20.50;;;13.90;99.90;;;;;;5075235;28;20654;-83
2022/06/07 01:53:44;;;;;;;31.00;19.37;;;13.90;99.90;;;;;;5079039;28;20219;-82
2022/06/07 01:56:14;;;;;;;30.00;20.13;;;13.90;99.90;;;;;;5073822;28;20224;-84
2022/06/07 01:58:43;;;;;;;31.97;20.37;;;13.90;99.90;;;;;;5076832;28;20200;-83
2022/06/07 02:01:12;;;;;;;37.37;20.83;;;14.00;99.90;;;;;;5077407;28;20260;-83
2022/06/07 02:03:40;;;;;;;33.90;20.73;;;14.00;99.90;;;;;;5073522;28;20208;-83
2022/06/07 02:06:11;;;;;;;35.73;21.10;;;14.00;99.90;;;;;;5079740;28;20257;-86
2022/06/07 02:08:41;;;;;;;34.07;21.43;;;14.00;99.90;;;;;;5075325;28;20505;-85
2022/06/07 02:11:14;;;;;;;34.07;22.40;;;14.10;99.90;;;;;;5072460;28;20236;-84
2022/06/07 02:13:41;;;;;;;37.47;21.57;;;14.10;99.90;;;;;;5074376;28;20708;-86
2022/06/07 02:16:10;;;;;;;38.87;22.37;;;14.20;99.90;;;;;;5082640;28;20752;-85
2022/06/07 02:18:38;;;;;;;34.20;20.97;;;14.10;99.90;;;;;;5074445;28;20209;-86
2022/06/07 02:21:06;;;;;;;38.80;22.20;;;14.20;99.90;;;;;;5079822;28;20282;-84
2022/06/07 02:23:35;;;;;;;38.40;22.23;;;14.10;99.90;;;;;;5083433;28;20232;-81
2022/06/07 02:26:12;;;;;;;36.73;23.30;;;14.20;99.90;;;;;;5081208;28;20223;-83
2022/06/07 02:28:42;;;;;;;38.50;22.80;;;14.20;99.90;;;;;;5078177;28;20681;-82
2022/06/07 02:31:10;;;;;;;35.70;23.07;;;14.10;99.90;;;;;;5081219;28;20200;-83
2022/06/07 02:33:39;;;;;;;40.97;23.77;;;14.10;99.90;;;;;;5075482;28;20225;-83
2022/06/07 02:36:08;;;;;;;39.30;23.97;;;14.20;99.90;;;;;;5080100;28;20219;-84
2022/06/07 02:38:37;;;;;;;38.80;23.60;;;14.20;99.90;;;;;;5075698;28;20197;-85
2022/06/07 02:41:07;;;;;;;39.27;24.13;;;14.20;99.90;;;;;;5068364;28;20234;-85
2022/06/07 02:43:36;;;;;;;39.90;24.50;;;14.20;99.90;;;;;;5082628;28;20208;-86
2022/06/07 02:46:03;;;;;;;38.50;22.93;;;14.20;99.90;;;;;;5078757;28;20671;-83
2022/06/07 02:48:30;;;;;;;39.83;22.80;;;14.20;99.90;;;;;;5074439;28;20315;-83
2022/06/07 02:50:58;;;;;;;39.43;22.43;;;14.20;99.90;;;;;;5071628;28;20296;-84
2022/06/07 02:53:25;;;;;;;42.10;24.87;;;14.20;99.90;;;;;;5077068;28;20232;-85
2022/06/07 02:55:52;;;;;;;38.70;23.90;;;14.20;99.90;;;;;;5076208;28;20325;-83
2022/06/07 02:58:19;;;;;;;38.47;24.67;;;14.20;99.90;;;;;;5071796;28;20209;-86
2022/06/07 03:00:46;;;;;;;42.63;24.83;;;14.20;99.90;;;;;;5077027;28;20656;-85
2022/06/07 03:03:13;;;;;;;36.60;23.67;;;14.20;99.90;;;;;;5076838;28;20288;-84
2022/06/07 03:05:40;;;;;;;39.10;23.53;;;14.20;99.90;;;;;;5088566;28;20247;-83
2022/06/07 03:08:07;;;;;;;36.00;23.40;;;14.20;99.90;;;;;;5082995;28;20242;-84
2022/06/07 03:10:34;;;;;;;39.07;24.17;;;14.20;99.90;;;;;;5078316;28;20262;-82
2022/06/07 03:13:01;;;;;;;38.67;22.83;;;14.20;99.90;;;;;;5085820;28;20295;-84
2022/06/07 03:15:28;;;;;;;36.63;23.23;;;14.20;99.90;;;;;;5076933;28;20546;-84
2022/06/07 03:17:55;;;;;;;38.37;23.67;;;14.10;99.90;;;;;;5075092;28;20672;-85
2022/06/07 03:20:22;;;;;;;38.60;22.90;;;14.10;99.90;;;;;;5079288;28;20204;-85
2022/06/07 03:22:49;;;;;;;38.07;24.07;;;14.00;99.90;;;;;;5073618;28;20203;-86
2022/06/07 03:25:16;;;;;;;38.70;23.70;;;14.10;99.90;;;;;;5081809;28;20220;-83
2022/06/07 03:27:43;;;;;;;39.60;24.17;;;14.10;99.90;;;;;;5074056;28;20204;-84
2022/06/07 03:30:10;;;;;;;37.00;23.00;;;14.10;99.90;;;;;;5073991;28;20204;-83
2022/06/07 03:32:38;;;;;;;39.57;24.63;;;14.10;99.90;;;;;;5076918;28;20200;-85
2022/06/07 03:35:06;;;;;;;40.37;23.30;;;14.10;99.90;;;;;;5072305;28;20211;-84
2022/06/07 03:37:34;;;;;;;34.90;23.03;;;14.20;99.90;;;;;;5077812;28;20449;-82
2022/06/07 03:40:00;;;;;;;40.83;23.77;;;14.20;99.90;;;;;;5080327;28;20220;-85
2022/06/07 03:42:27;;;;;;;43.20;25.07;;;14.20;99.90;;;;;;5081970;28;20270;-84
2022/06/07 03:44:54;;;;;;;38.90;24.90;;;14.20;99.90;;;;;;5079471;28;20211;-82
2022/06/07 03:47:21;;;;;;;38.50;23.53;;;14.20;99.90;;;;;;5077482;28;20203;-83
2022/06/07 03:49:48;;;;;;;34.97;22.90;;;14.20;99.90;;;;;;5080804;28;20215;-84
2022/06/07 03:52:16;;;;;;;35.37;22.87;;;14.20;99.90;;;;;;5080310;28;20208;-83
2022/06/07 03:54:44;;;;;;;35.57;23.47;;;14.20;99.90;;;;;;5080819;28;20220;-83
2022/06/07 03:57:11;;;;;;;36.73;22.97;;;14.30;99.90;;;;;;5068917;28;20756;-83
2022/06/07 03:59:39;;;;;;;33.03;22.27;;;14.30;99.90;;;;;;5075117;28;20205;-83
2022/06/07 04:02:07;;;;;;;31.97;21.83;;;14.30;99.90;;;;;;5068943;28;20238;-83
2022/06/07 04:04:35;;;;;;;30.77;21.50;;;14.30;99.90;;;;;;5080033;28;20196;-82
2022/06/07 04:09:50;;;;;;;27.20;19.07;;;14.30;99.90;;;;;;5079816;28;20216;-81
2022/06/07 04:12:17;;;;;;;25.73;18.43;;;14.30;99.90;;;;;;5080807;28;20208;-83
2022/06/07 04:14:46;;;;;;;27.73;18.10;;;14.30;99.90;;;;;;5072929;28;20721;-83
2022/06/07 04:17:13;;;;;;;28.00;18.50;;;14.40;99.90;;;;;;5075313;28;20230;-82
2022/06/07 04:19:42;;;;;;;26.97;18.00;;;14.30;99.90;;;;;;5075612;28;20201;-80
2022/06/07 04:22:11;;;;;;;23.20;16.97;;;14.40;99.90;;;;;;5084143;28;20548;-80
2022/06/07 04:24:38;;;;;;;25.87;17.10;;;14.30;99.90;;;;;;5075732;28;20676;-83
2022/06/07 04:27:05;;;;;;;24.50;17.73;;;14.30;99.90;;;;;;5075416;28;20533;-82
2022/06/07 04:29:32;;;;;;;23.17;16.27;;;14.30;99.90;;;;;;5080729;28;20766;-83
2022/06/07 04:31:59;;;;;;;25.43;17.77;;;14.40;99.90;;;;;;5077794;28;20208;-84
2022/06/07 04:34:26;;;;;;;23.93;16.93;;;14.40;99.90;;;;;;5079173;28;20207;-84
2022/06/07 04:36:53;;;;;;;26.50;16.63;;;14.40;99.90;;;;;;5079229;28;20228;-80
2022/06/07 04:39:20;;;;;;;22.23;16.27;;;14.40;99.90;;;;;;5087125;28;20219;-83
2022/06/07 04:41:46;;;;;;;21.67;15.97;;;14.50;99.90;;;;;;5073636;28;20252;-84
2022/06/07 04:44:13;;;;;;;23.90;16.27;;;14.50;99.90;;;;;;5080256;28;20200;-83
2022/06/07 04:46:40;;;;;;;23.17;16.47;;;14.60;99.90;;;;;;5079221;28;20204;-83
2022/06/07 04:49:07;;;;;;;24.47;17.23;;;14.60;99.90;;;;;;5073500;28;20588;-81
2022/06/07 04:51:37;;;;;;;25.33;17.53;;;14.60;99.90;;;;;;5074037;28;20270;-83
2022/06/07 04:54:05;;;;;;;24.43;16.83;;;14.60;99.90;;;;;;5076394;28;20228;-83
2022/06/07 04:56:36;;;;;;;25.33;17.70;;;14.60;99.90;;;;;;5077191;28;20282;-84
2022/06/07 04:59:05;;;;;;;26.33;17.97;;;14.60;99.90;;;;;;5076202;28;20208;-82
2022/06/07 05:01:43;;;;;;;28.27;18.20;;;14.70;99.90;;;;;;5071673;28;20588;-83
2022/06/07 05:04:11;;;;;;;24.73;16.77;;;14.80;99.90;;;;;;5072520;28;20221;-84
2022/06/07 05:06:40;;;;;;;25.93;17.47;;;14.80;99.90;;;;;;5074611;28;20219;-82
2022/06/07 05:09:20;;;;;;;26.50;18.30;;;14.90;99.90;;;;;;5077125;28;20668;-81
2022/06/07 05:11:51;;;;;;;27.40;17.90;;;14.90;99.90;;;;;;5078635;28;20208;-84
2022/06/07 05:14:18;;;;;;;24.80;17.53;;;14.90;99.90;;;;;;5076077;28;20208;-83
2022/06/07 05:16:45;;;;;;;26.03;17.53;;;14.90;99.90;;;;;;5075854;28;20301;-85
2022/06/07 05:19:14;;;;;;;24.17;17.47;;;15.00;99.90;;;;;;5078956;28;20535;-82
2022/06/07 05:21:41;;;;;;;27.17;17.13;;;14.90;99.90;;;;;;5082839;28;20640;-81
2022/06/07 05:24:09;;;;;;;25.60;17.07;;;14.90;99.90;;;;;;5086202;28;20201;-82
2022/06/07 05:26:46;;;;;;;24.27;17.80;;;14.80;99.90;;;;;;5084986;28;20203;-80
2022/06/07 05:29:24;;;;;;;25.20;16.20;;;14.90;99.90;;;;;;5080889;28;20249;-84
2022/06/07 05:31:51;;;;;;;22.73;16.77;;;14.90;99.90;;;;;;5077508;28;20208;-81
2022/06/07 05:34:18;;;;;;;25.67;15.97;;;15.00;99.90;;;;;;5085786;28;20200;-83
2022/06/07 05:36:45;;;;;;;24.30;16.20;;;15.00;99.90;;;;;;5084561;28;20236;-81
2022/06/07 05:39:28;;;;;;;24.47;16.17;;;15.10;99.90;;;;;;5088950;28;20760;-86
2022/06/07 05:41:55;;;;;;;22.90;15.20;;;15.20;99.90;;;;;;5082193;28;20720;-86
2022/06/07 05:44:24;;;;;;;24.13;16.60;;;15.30;99.90;;;;;;5081514;28;20251;-86
2022/06/07 05:46:52;;;;;;;22.13;15.20;;;15.40;99.90;;;;;;5075370;28;20252;-86
2022/06/07 05:49:20;;;;;;;20.53;14.80;;;15.40;99.90;;;;;;5082723;28;20302;-83
2022/06/07 05:51:47;;;;;;;23.37;15.33;;;15.40;99.90;;;;;;5076474;28;20574;-85
2022/06/07 05:54:15;;;;;;;19.37;14.33;;;15.40;99.90;;;;;;5080288;28;20300;-86
2022/06/07 05:56:42;;;;;;;21.93;14.30;;;15.60;99.90;;;;;;5077859;28;20688;-83
2022/06/07 05:59:09;;;;;;;21.23;14.23;;;15.90;99.90;;;;;;5085368;28;20196;-83
2022/06/07 06:01:35;;;;;;;17.63;12.68;;;16.00;99.90;;;;;;5090610;28;20197;-88
2022/06/07 06:04:03;;;;;;;20.60;13.10;;;16.10;99.90;;;;;;5086154;28;20696;-88
2022/06/07 06:06:30;;;;;;;19.48;13.18;;;16.40;99.90;;;;;;5086974;28;20282;-87
2022/06/07 06:11:43;;;;;;;18.73;13.52;;;17.00;99.90;;;;;;5083106;28;20230;-84
2022/06/07 06:14:10;;;;;;;16.42;11.45;;;17.30;99.90;;;;;;5079271;28;20449;-84
2022/06/07 06:16:37;;;;;;;16.35;11.38;;;17.80;99.90;;;;;;5076056;28;20976;-82
2022/06/07 06:19:05;;;;;;;18.90;10.40;;;18.60;99.90;;;;;;5074053;28;20204;-83
2022/06/07 06:21:38;;;;;;;14.35;10.23;;;19.20;99.90;;;;;;5082623;28;20208;-84
2022/06/07 06:24:06;;;;;;;14.50;10.70;;;19.70;99.90;;;;;;5083735;28;20253;-83
2022/06/07 06:26:33;;;;;;;13.63;10.20;;;20.30;99.90;;;;;;5078097;28;20608;-80
2022/06/07 06:29:00;;;;;;;13.07;10.63;;;20.70;99.90;;;;;;5073425;28;20235;-84
2022/06/07 06:31:27;;;;;;;13.32;10.70;;;20.40;99.90;;;;;;5084619;28;20230;-84
2022/06/07 06:33:54;;;;;;;12.02;9.88;;;20.00;99.90;;;;;;5073102;28;20599;-83
2022/06/07 06:36:24;;;;;;;12.48;9.43;;;20.00;99.90;;;;;;5083818;28;20196;-83
2022/06/07 06:38:51;;;;;;;11.40;9.80;;;20.10;99.90;;;;;;5083981;28;20200;-85
2022/06/07 06:41:23;;;;;;;12.45;10.20;;;19.90;99.90;;;;;;5076332;28;20265;-85
2022/06/07 06:43:51;;;;;;;14.75;10.52;;;19.80;99.90;;;;;;5080968;28;20619;-82
2022/06/07 06:46:27;;;;;;;12.65;9.02;;;19.80;99.90;;;;;;5081769;28;20560;-85
2022/06/07 06:48:55;;;;;;;15.88;10.35;;;;;;;;;;5076199;28;20216;-83
2022/06/07 06:51:28;;;;;;;13.65;10.85;;;19.10;99.90;;;;;;5080892;28;20659;-81
2022/06/07 06:53:59;;;;;;;12.90;10.50;;;18.70;99.90;;;;;;5082031;28;20244;-84
2022/06/07 06:56:29;;;;;;;12.90;9.85;;;18.50;99.90;;;;;;5086005;28;20236;-86
2022/06/07 06:58:57;;;;;;;15.75;10.13;;;18.30;99.90;;;;;;5077831;28;20246;-84
2022/06/07 07:01:32;;;;;;;17.35;10.85;;;18.20;99.90;;;;;;5080740;28;20213;-84
2022/06/07 07:04:04;;;;;;;13.95;9.52;;;17.80;99.90;;;;;;5082503;28;20204;-84
2022/06/07 07:06:31;;;;;;;13.82;10.23;;;17.60;99.90;;;;;;5081584;28;20602;-84
2022/06/07 07:08:59;;;;;;;14.15;10.48;;;17.60;99.90;;;;;;5082922;28;20559;-85
2022/06/07 07:11:39;;;;;;;15.65;9.65;;;17.80;99.90;;;;;;5090262;28;20289;-86
2022/06/07 07:14:08;;;;;;;14.50;9.68;;;17.90;99.90;;;;;;5079296;28;20223;-83
2022/06/07 07:16:38;;;;;;;14.75;10.32;;;17.90;99.90;;;;;;5076045;28;20192;-85
2022/06/07 07:19:05;;;;;;;13.65;9.90;;;18.00;99.90;;;;;;5076383;28;20550;-85
2022/06/07 07:21:36;;;;;;;15.20;10.20;;;18.00;99.90;;;;;;5083369;28;20242;-83
2022/06/07 07:24:05;;;;;;;17.25;11.18;;;17.90;99.90;;;;;;5084996;28;20257;-84
2022/06/07 07:26:33;;;;;;;16.23;10.10;;;17.90;99.90;;;;;;5083138;28;20200;-84
2022/06/07 07:29:00;;;;;;;11.98;9.85;;;17.70;99.90;;;;;;5090987;28;20222;-81
2022/06/07 07:31:32;;;;;;;14.02;10.02;;;17.60;99.90;;;;;;5078587;28;20954;-83
2022/06/07 07:34:03;;;;;;;12.70;8.80;;;17.50;99.90;;;;;;5078916;28;20206;-84
2022/06/07 07:36:30;;;;;;;12.30;9.32;;;17.50;99.90;;;;;;5081046;28;20278;-83
2022/06/07 07:38:58;;;;;;;13.48;8.90;;;17.50;99.90;;;;;;5080654;28;20220;-82
2022/06/07 07:41:30;;;;;;;11.80;9.00;;;17.60;99.90;;;;;;5085795;28;20249;-83
2022/06/07 07:44:01;;;;;;;12.65;9.20;;;17.80;99.90;;;;;;5084785;28;20204;-86
2022/06/07 07:46:32;;;;;;;11.65;9.68;;;17.90;99.90;;;;;;5088520;28;20712;-84
2022/06/07 07:49:00;;;;;;;10.30;8.35;;;18.10;99.90;;;;;;5082900;28;20219;-83
2022/06/07 07:51:30;;;;;;;15.70;11.10;;;18.30;99.90;;;;;;5085599;28;20202;-86
2022/06/07 07:54:00;;;;;;;14.65;10.18;;;18.20;99.90;;;;;;5085001;28;20228;-86
2022/06/07 07:56:28;;;;;;;13.63;10.05;;;18.20;99.90;;;;;;5091974;28;20189;-85
2022/06/07 07:58:57;;;;;;;12.00;9.70;;;18.20;99.90;;;;;;5086359;28;20224;-84
2022/06/07 08:01:26;;;;;;;13.95;9.23;;;18.20;99.90;;;;;;5084188;28;20200;-84
2022/06/07 08:03:57;;;;;;;11.00;8.68;;;18.00;99.90;;;;;;5084261;28;20203;-85
2022/06/07 08:06:27;;;;;;;10.60;9.10;;;18.00;99.90;;;;;;5083926;28;20203;-84
2022/06/07 08:08:56;;;;;;;12.45;8.90;;;18.00;99.90;;;;;;5082094;28;20204;-83
2022/06/07 08:11:26;;;;;;;13.20;8.43;;;17.90;99.90;;;;;;5079643;28;20209;-86
2022/06/07 08:13:53;;;;;;;12.50;7.95;;;17.90;99.90;;;;;;5081008;28;20192;-81
2022/06/07 08:16:20;;;;;;;9.52;7.70;;;17.80;99.90;;;;;;5075217;28;21807;-80
2022/06/07 08:18:47;;;;;;;13.63;8.73;;;17.70;99.90;;;;;;5085954;28;20397;-79
2022/06/07 08:21:21;;;;;;;10.70;8.73;;;17.60;99.90;;;;;;5083220;28;20265;-81
2022/06/07 08:23:49;;;;;;;11.50;8.13;;;17.70;99.90;;;;;;5078242;28;20209;-80
2022/06/07 08:26:17;;;;;;;10.63;8.20;;;17.70;99.90;;;;;;5084106;28;20605;-82
2022/06/07 08:28:45;;;;;;;12.88;8.73;;;17.70;99.90;;;;;;5085694;28;20200;-82
2022/06/07 08:31:18;;;;;;;10.93;8.02;;;17.80;99.90;;;;;;5088118;28;20206;-79
2022/06/07 08:39:19;;;;;;;11.95;8.95;;;18.20;99.90;;;;;;5076263;28;20625;-79
2022/06/07 08:42:00;;;;;;;12.60;8.10;;;18.20;99.90;;;;;;5085144;28;20218;-80
2022/06/07 08:44:39;;;;;;;9.48;7.30;;;18.10;99.90;;;;;;5079709;28;20191;-81
2022/06/07 08:47:46;;;;;;;10.98;8.70;;;18.20;99.90;;;;;;5079497;28;20204;-84
2022/06/07 08:50:18;;;;;;;10.88;8.25;;;18.10;99.90;;;;;;5086224;28;20221;-85
2022/06/07 08:52:47;;;;;;;10.18;7.45;;;17.90;99.90;;;;;;5087279;28;20227;-81
2022/06/07 08:55:32;;;;;;;10.43;7.30;;;17.90;99.90;;;;;;5092426;28;20264;-83
2022/06/07 08:58:01;;;;;;;12.13;7.55;;;17.70;99.90;;;;;;5093061;28;20228;-81
2022/06/07 09:00:31;;;;;;;11.70;7.38;;;17.60;99.90;;;;;;5078542;28;20250;-82
2022/06/07 09:03:26;;;;;;;12.05;7.90;;;17.60;99.90;;;;;;5083464;28;20251;-83
2022/06/07 09:06:00;;;;;;;10.02;7.45;;;17.50;99.90;;;;;;5089857;28;20639;-83
2022/06/07 09:08:39;;;;;;;10.45;7.63;;;17.60;99.90;;;;;;5086020;28;20200;-80
2022/06/07 09:13:54;;;;;;;9.27;6.78;;;17.60;99.90;;;;;;5084873;28;20250;-83
2022/06/07 09:16:21;;;;;;;10.55;7.13;;;17.70;99.90;;;;;;5087823;28;20207;-81
2022/06/07 09:18:51;;;;;;;12.38;8.07;;;17.80;99.90;;;;;;5084874;28;20232;-81
2022/06/07 09:21:30;;;;;;;11.90;7.03;;;17.80;99.90;;;;;;5084403;28;20730;-83
2022/06/07 09:23:58;;;;;;;7.68;6.88;;;17.80;99.90;;;;;;5088367;28;20200;-84
2022/06/07 09:26:36;;;;;;;11.15;7.00;;;17.70;99.90;;;;;;5079792;28;20211;-81
2022/06/07 09:29:13;;;;;;;10.98;7.72;;;17.70;99.90;;;;;;5086283;28;20200;-80
2022/06/07 09:31:42;;;;;;;11.15;8.20;;;17.80;99.90;;;;;;5079722;28;20196;-81
2022/06/07 09:34:26;;;;;;;13.68;8.88;;;17.90;99.90;;;;;;5075452;28;20207;-80
2022/06/07 09:37:01;;;;;;;9.10;7.47;;;18.00;99.90;;;;;;5074129;28;20195;-78
2022/06/07 09:39:42;;;;;;;10.68;7.10;;;18.20;99.90;;;;;;5074626;28;20235;-78
2022/06/07 09:42:23;;;;;;;10.55;7.70;;;18.50;99.90;;;;;;5081976;28;20289;-80
2022/06/07 09:45:02;;;;;;;9.55;7.90;;;19.00;99.90;;;;;;5081706;28;20290;-78
2022/06/07 09:47:31;;;;;;;9.15;7.20;;;19.40;99.90;;;;;;5082569;28;20329;-80
2022/06/07 09:50:05;;;;;;;12.80;8.80;;;19.60;99.90;;;;;;5088770;28;20230;-80
2022/06/07 09:52:49;;;;;;;9.38;7.07;;;19.60;99.90;;;;;;5083893;28;20216;-77
2022/06/07 09:55:19;;;;;;;9.70;7.18;;;19.80;99.90;;;;;;5089208;28;20540;-76
2022/06/07 09:58:12;;;;;;;9.85;6.32;;;19.90;99.90;;;;;;5086890;28;20220;-77
2022/06/07 10:01:00;;;;;;;10.93;7.80;;;20.10;99.90;;;;;;5086852;28;20716;-78
2022/06/07 10:03:47;;;;;;;10.85;7.97;;;20.00;99.90;;;;;;5086526;28;20200;-76
2022/06/07 10:06:48;;;;;;;7.57;6.35;;;20.00;99.90;;;;;;5078983;28;20215;-81
2022/06/07 10:09:25;;;;;;;12.18;7.57;;;19.90;99.90;;;;;;5084404;28;20640;-78
2022/06/07 10:12:16;;;;;;;11.75;8.30;;;19.90;99.90;;;;;;5085578;28;20250;-78
2022/06/07 10:15:03;;;;;;;11.18;7.65;;;19.70;99.90;;;;;;5081258;28;20242;-78
2022/06/07 10:18:03;;;;;;;9.75;7.72;;;19.80;99.90;;;;;;5085864;28;20401;-78
2022/06/07 10:20:59;;;;;;;9.95;8.23;;;19.90;99.90;;;;;;5082037;28;20249;-78
2022/06/07 10:23:59;;;;;;;10.65;8.77;;;20.10;99.90;;;;;;5084983;28;20201;-79
2022/06/07 10:26:41;;;;;;;9.77;8.77;;;20.30;99.90;;;;;;5084242;28;20220;-78
2022/06/07 10:29:26;;;;;;;13.18;8.57;;;20.50;99.90;;;;;;5085431;28;20219;-77
2022/06/07 10:32:12;;;;;;;10.60;9.13;;;20.60;99.90;;;;;;5088839;28;20349;-79
2022/06/07 10:34:45;;;;;;;13.25;9.80;;;20.70;99.90;;;;;;5080621;28;20208;-78
2022/06/07 10:37:33;;;;;;;9.43;7.50;;;21.00;99.90;;;;;;5087634;28;20311;-77
2022/06/07 10:40:29;;;;;;;14.30;8.85;;;21.50;99.90;;;;;;5083469;28;20254;-78
2022/06/07 10:43:20;;;;;;;12.35;9.40;;;21.80;99.90;;;;;;5089953;28;20863;-78
2022/06/07 10:45:50;;;;;;;10.48;8.77;;;21.80;99.90;;;;;;5074318;28;20199;-81
2022/06/07 10:48:26;;;;;;;13.73;8.23;;;21.60;99.90;;;;;;5078318;28;20213;-80
2022/06/07 10:51:01;;;;;;;12.27;7.82;;;21.50;99.90;;;;;;5077790;28;20199;-84
2022/06/07 10:53:40;;;;;;;8.70;7.80;;;21.60;99.90;;;;;;5078443;28;21229;-78
2022/06/07 10:56:23;;;;;;;10.85;7.18;;;21.50;99.90;;;;;;5072342;28;20314;-79
2022/06/07 10:58:54;;;;;;;9.23;7.15;;;21.50;99.90;;;;;;5084317;28;20223;-81
2022/06/07 11:01:24;;;;;;;10.15;8.00;;;21.50;99.90;;;;;;5079523;28;20217;-79
2022/06/07 11:09:19;;;;;;;8.93;7.20;;;21.30;99.90;;;;;;5084830;28;20726;-83
2022/06/07 11:09:56;;;;;;;7.65;6.85;;;20.90;99.90;;;;;;5081832;28;20642;-82
2022/06/07 11:12:35;;;;;;;8.38;7.30;;;20.70;99.90;;;;;;5082118;28;20713;-78
2022/06/07 11:15:49;;;;;;;9.93;7.28;;;20.70;99.90;;;;;;5078779;28;20637;-81
2022/06/07 11:18:21;;;;;;;8.90;7.60;;;20.90;99.90;;;;;;5082285;28;20319;-80
2022/06/07 11:21:00;;;;;;;8.38;6.93;;;20.90;99.90;;;;;;5080144;28;20200;-78
2022/06/07 11:23:34;;;;;;;8.90;6.93;;;21.00;99.90;;;;;;5081338;28;20204;-83
2022/06/07 11:26:08;;;;;;;11.45;8.93;;;21.00;99.90;;;;;;5082478;28;20754;-81
2022/06/07 11:28:43;;;;;;;8.88;7.75;;;20.90;99.90;;;;;;5083457;28;20245;-78
2022/06/07 11:31:28;;;;;;;13.82;9.20;;;20.80;99.90;;;;;;5082896;28;20735;-80
2022/06/07 11:34:20;;;;;;;11.80;8.73;;;20.60;99.90;;;;;;5073937;28;20287;-79
2022/06/07 11:36:47;;;;;;;10.90;9.25;;;20.40;99.90;;;;;;5078935;28;20227;-81
2022/06/07 11:39:30;;;;;;;11.38;8.75;;;20.20;99.90;;;;;;5088286;28;20707;-80
2022/06/07 11:42:17;;;;;;;10.75;9.02;;;20.20;99.90;;;;;;5079374;28;20191;-81
2022/06/07 11:44:45;;;;;;;10.15;8.38;;;20.00;99.90;;;;;;5082318;28;20580;-80
2022/06/07 11:47:16;;;;;;;11.10;8.88;;;20.00;99.90;;;;;;5078326;28;20226;-80
2022/06/07 11:49:46;;;;;;;8.98;7.25;;;19.90;99.90;;;;;;5074921;28;20307;-83
2022/06/07 11:52:13;;;;;;;9.40;8.27;;;19.80;99.90;;;;;;5075998;28;20254;-82
2022/06/07 11:54:45;;;;;;;10.30;7.47;;;19.80;99.90;;;;;;5080270;28;20607;-82
2022/06/07 11:57:32;;;;;;;10.25;7.22;;;19.70;99.90;;;;;;5088359;28;20632;-84
2022/06/07 12:00:20;;;;;;;9.70;7.47;;;19.80;99.90;;;;;;5088030;28;20224;-81
2022/06/07 12:03:02;;;;;;;9.60;6.97;;;20.10;99.90;;;;;;5082096;28;20513;-82
2022/06/07 12:05:47;;;;;;;10.77;7.55;;;20.50;99.90;;;;;;5076335;28;20204;-82
2022/06/07 12:08:26;;;;;;;9.48;7.60;;;20.90;99.90;;;;;;5076506;28;20261;-81
2022/06/07 12:11:23;;;;;;;7.68;6.50;;;21.10;99.90;;;;;;5079615;28;20680;-80
2022/06/07 12:13:56;;;;;;;9.50;6.88;;;21.30;99.90;;;;;;5098480;27;20199;-80
2022/06/07 12:16:34;;;;;;;8.95;6.28;;;21.30;99.90;;;;;;5076503;28;20215;-81
2022/06/07 12:19:24;;;;;;;7.68;6.28;;;21.40;99.90;;;;;;5070762;28;20398;-81
2022/06/07 12:21:54;;;;;;;8.60;6.13;;;21.30;99.90;;;;;;5078265;28;20205;-78
2022/06/07 12:24:22;;;;;;;7.70;6.43;;;21.50;99.90;;;;;;5081998;28;20215;-80
2022/06/07 12:26:50;;;;;;;8.05;7.03;;;21.30;99.90;;;;;;5078202;28;20277;-80
2022/06/07 12:29:29;;;;;;;8.57;6.70;;;21.20;99.90;;;;;;5078945;28;20200;-81
2022/06/07 12:32:00;;;;;;;10.45;7.57;;;21.00;99.90;;;;;;5080919;28;20255;-79
2022/06/07 12:34:36;;;;;;;11.52;8.00;;;20.70;99.90;;;;;;5074759;28;20212;-79
2022/06/07 12:37:09;;;;;;;8.07;7.28;;;20.50;99.90;;;;;;5076637;28;20202;-81
2022/06/07 12:39:49;;;;;;;10.05;7.15;;;20.40;99.90;;;;;;5082451;28;20735;-82
2022/06/07 12:42:18;;;;;;;8.55;6.80;;;20.40;99.90;;;;;;5077448;28;20210;-82
2022/06/07 12:45:16;;;;;;;9.75;6.90;;;20.30;99.90;;;;;;5077144;28;20727;-80
2022/06/07 12:47:44;;;;;;;7.93;7.00;;;20.40;99.90;;;;;;5082906;28;20657;-81
2022/06/07 12:50:32;;;;;;;8.55;7.30;;;20.60;99.90;;;;;;5076514;28;20208;-84
2022/06/07 12:53:00;;;;;;;8.07;6.72;;;20.80;99.90;;;;;;5081800;28;20234;-83
2022/06/07 12:55:30;;;;;;;8.45;6.85;;;20.90;99.90;;;;;;5080091;28;20699;-80
2022/06/07 12:58:01;;;;;;;9.63;7.63;;;21.10;99.90;;;;;;5078526;28;20208;-82
2022/06/07 13:00:39;;;;;;;9.27;6.90;;;21.30;99.90;;;;;;5081290;28;20670;-83
2022/06/07 13:03:22;;;;;;;10.27;7.53;;;21.30;99.90;;;;;;5082706;28;20191;-81
2022/06/07 13:05:59;;;;;;;8.02;6.65;;;21.30;99.90;;;;;;5078484;28;20238;-85
2022/06/07 13:08:36;;;;;;;7.82;5.85;;;21.60;99.90;;;;;;5089030;27;20200;-81
2022/06/07 13:11:05;;;;;;;7.40;6.05;;;22.00;99.90;;;;;;5084972;28;20265;-81
2022/06/07 13:13:37;;;;;;;10.48;7.40;;;22.40;99.90;;;;;;5075171;28;20630;-82
2022/06/07 13:16:08;;;;;;;8.15;6.15;;;22.50;99.90;;;;;;5082732;28;20204;-85
2022/06/07 13:18:42;;;;;;;6.70;5.47;;;22.60;99.90;;;;;;5088549;28;20849;-85
2022/06/07 13:21:22;;;;;;;6.40;5.35;;;22.60;99.90;;;;;;5083665;28;20665;-83